sensor_id;sensor_type;location;lat;lon;timestamp;P1;durP1;ratioP1;P2;durP2;ratioP2
19339;SDS011;9804;52.350;6.684;2022-12-07T00:01:13;10.93;;;3.07;;
19339;SDS011;9804;52.350;6.684;2022-12-07T00:04:00;9.20;;;3.30;;
19339;SDS011;9804;52.350;6.684;2022-12-07T00:06:33;6.47;;;2.70;;
19339;SDS011;9804;52.350;6.684;2022-12-07T00:09:00;9.40;;;2.80;;
19339;SDS011;9804;52.350;6.684;2022-12-07T00:11:25;8.50;;;2.50;;
19339;SDS011;9804;52.350;6.684;2022-12-07T00:13:52;6.60;;;2.60;;
19339;SDS011;9804;52.350;6.684;2022-12-07T00:16:20;9.23;;;2.63;;
19339;SDS011;9804;52.350;6.684;2022-12-07T00:18:46;7.77;;;2.17;;
19339;SDS011;9804;52.350;6.684;2022-12-07T00:21:14;12.63;;;2.30;;
19339;SDS011;9804;52.350;6.684;2022-12-07T00:23:42;4.03;;;1.80;;
19339;SDS011;9804;52.350;6.684;2022-12-07T00:26:09;6.83;;;2.20;;
19339;SDS011;9804;52.350;6.684;2022-12-07T00:28:36;5.63;;;2.20;;
19339;SDS011;9804;52.350;6.684;2022-12-07T00:31:06;8.67;;;2.50;;
19339;SDS011;9804;52.350;6.684;2022-12-07T00:33:34;7.20;;;2.27;;
19339;SDS011;9804;52.350;6.684;2022-12-07T00:36:00;6.20;;;1.97;;
19339;SDS011;9804;52.350;6.684;2022-12-07T00:38:27;10.67;;;2.37;;
19339;SDS011;9804;52.350;6.684;2022-12-07T00:41:37;6.63;;;2.47;;
19339;SDS011;9804;52.350;6.684;2022-12-07T00:43:44;8.43;;;2.10;;
19339;SDS011;9804;52.350;6.684;2022-12-07T00:46:11;9.77;;;1.80;;
19339;SDS011;9804;52.350;6.684;2022-12-07T00:48:37;7.60;;;2.67;;
19339;SDS011;9804;52.350;6.684;2022-12-07T00:51:03;5.77;;;1.97;;
19339;SDS011;9804;52.350;6.684;2022-12-07T00:53:29;5.00;;;2.23;;
19339;SDS011;9804;52.350;6.684;2022-12-07T00:55:55;7.73;;;2.20;;
19339;SDS011;9804;52.350;6.684;2022-12-07T00:58:21;5.40;;;2.00;;
19339;SDS011;9804;52.350;6.684;2022-12-07T01:00:47;8.63;;;2.20;;
19339;SDS011;9804;52.350;6.684;2022-12-07T01:03:13;5.50;;;2.30;;
19339;SDS011;9804;52.350;6.684;2022-12-07T01:05:40;4.67;;;2.43;;
19339;SDS011;9804;52.350;6.684;2022-12-07T01:08:13;8.00;;;2.20;;
19339;SDS011;9804;52.350;6.684;2022-12-07T01:10:38;9.00;;;2.70;;
19339;SDS011;9804;52.350;6.684;2022-12-07T01:13:03;6.93;;;2.40;;
19339;SDS011;9804;52.350;6.684;2022-12-07T01:15:29;9.23;;;2.20;;
19339;SDS011;9804;52.350;6.684;2022-12-07T01:17:54;10.83;;;2.70;;
19339;SDS011;9804;52.350;6.684;2022-12-07T01:20:19;10.90;;;2.50;;
19339;SDS011;9804;52.350;6.684;2022-12-07T01:22:45;7.37;;;2.20;;
19339;SDS011;9804;52.350;6.684;2022-12-07T01:25:11;11.50;;;2.37;;
19339;SDS011;9804;52.350;6.684;2022-12-07T01:27:37;9.60;;;2.57;;
19339;SDS011;9804;52.350;6.684;2022-12-07T01:30:03;10.73;;;3.13;;
19339;SDS011;9804;52.350;6.684;2022-12-07T01:32:30;12.00;;;2.70;;
19339;SDS011;9804;52.350;6.684;2022-12-07T01:34:55;8.70;;;2.23;;
19339;SDS011;9804;52.350;6.684;2022-12-07T01:37:21;7.43;;;2.50;;
19339;SDS011;9804;52.350;6.684;2022-12-07T01:39:48;5.53;;;2.40;;
19339;SDS011;9804;52.350;6.684;2022-12-07T01:42:14;9.47;;;2.60;;
19339;SDS011;9804;52.350;6.684;2022-12-07T01:47:56;6.80;;;2.70;;
19339;SDS011;9804;52.350;6.684;2022-12-07T01:50:24;12.57;;;3.50;;
19339;SDS011;9804;52.350;6.684;2022-12-07T01:52:51;13.30;;;2.50;;
19339;SDS011;9804;52.350;6.684;2022-12-07T01:55:20;7.50;;;2.77;;
19339;SDS011;9804;52.350;6.684;2022-12-07T01:57:46;7.63;;;2.30;;
19339;SDS011;9804;52.350;6.684;2022-12-07T02:00:14;9.90;;;2.50;;
19339;SDS011;9804;52.350;6.684;2022-12-07T02:05:32;8.80;;;2.43;;
19339;SDS011;9804;52.350;6.684;2022-12-07T02:07:59;10.97;;;2.50;;
19339;SDS011;9804;52.350;6.684;2022-12-07T02:10:26;11.87;;;2.40;;
19339;SDS011;9804;52.350;6.684;2022-12-07T02:12:56;10.37;;;2.50;;
19339;SDS011;9804;52.350;6.684;2022-12-07T02:15:38;5.30;;;2.10;;
19339;SDS011;9804;52.350;6.684;2022-12-07T02:18:18;9.83;;;2.30;;
19339;SDS011;9804;52.350;6.684;2022-12-07T02:23:41;9.73;;;2.50;;
19339;SDS011;9804;52.350;6.684;2022-12-07T02:26:27;15.70;;;2.17;;
19339;SDS011;9804;52.350;6.684;2022-12-07T02:32:07;9.20;;;1.70;;
19339;SDS011;9804;52.350;6.684;2022-12-07T02:37:17;11.47;;;2.03;;
19339;SDS011;9804;52.350;6.684;2022-12-07T02:39:59;6.80;;;1.70;;
19339;SDS011;9804;52.350;6.684;2022-12-07T02:42:43;9.40;;;2.10;;
19339;SDS011;9804;52.350;6.684;2022-12-07T02:45:14;7.23;;;1.63;;
19339;SDS011;9804;52.350;6.684;2022-12-07T02:47:42;13.10;;;1.90;;
19339;SDS011;9804;52.350;6.684;2022-12-07T02:50:09;10.27;;;1.90;;
19339;SDS011;9804;52.350;6.684;2022-12-07T02:52:35;7.53;;;1.67;;
19339;SDS011;9804;52.350;6.684;2022-12-07T02:55:00;14.33;;;3.20;;
19339;SDS011;9804;52.350;6.684;2022-12-07T02:57:30;5.47;;;1.30;;
19339;SDS011;9804;52.350;6.684;2022-12-07T03:00:10;11.73;;;1.37;;
19339;SDS011;9804;52.350;6.684;2022-12-07T03:10:40;9.67;;;1.40;;
19339;SDS011;9804;52.350;6.684;2022-12-07T03:13:30;4.97;;;1.00;;
19339;SDS011;9804;52.350;6.684;2022-12-07T03:18:55;12.33;;;1.40;;
19339;SDS011;9804;52.350;6.684;2022-12-07T03:21:25;12.87;;;2.20;;
19339;SDS011;9804;52.350;6.684;2022-12-07T03:23:55;8.30;;;1.30;;
19339;SDS011;9804;52.350;6.684;2022-12-07T03:26:24;19.77;;;1.70;;
19339;SDS011;9804;52.350;6.684;2022-12-07T03:29:02;9.07;;;1.23;;
19339;SDS011;9804;52.350;6.684;2022-12-07T03:31:33;10.37;;;1.50;;
19339;SDS011;9804;52.350;6.684;2022-12-07T03:34:07;6.77;;;1.43;;
19339;SDS011;9804;52.350;6.684;2022-12-07T03:36:47;7.13;;;1.20;;
19339;SDS011;9804;52.350;6.684;2022-12-07T03:39:26;7.87;;;1.40;;
19339;SDS011;9804;52.350;6.684;2022-12-07T03:41:58;8.43;;;1.40;;
19339;SDS011;9804;52.350;6.684;2022-12-07T03:44:25;3.93;;;1.10;;
19339;SDS011;9804;52.350;6.684;2022-12-07T03:49:40;8.10;;;1.20;;
19339;SDS011;9804;52.350;6.684;2022-12-07T03:54:59;8.63;;;1.60;;
19339;SDS011;9804;52.350;6.684;2022-12-07T03:57:35;7.07;;;1.20;;
19339;SDS011;9804;52.350;6.684;2022-12-07T04:00:03;9.10;;;1.30;;
19339;SDS011;9804;52.350;6.684;2022-12-07T04:02:30;10.00;;;1.43;;
19339;SDS011;9804;52.350;6.684;2022-12-07T04:04:56;7.37;;;1.10;;
19339;SDS011;9804;52.350;6.684;2022-12-07T04:07:22;7.77;;;1.40;;
19339;SDS011;9804;52.350;6.684;2022-12-07T04:09:47;12.77;;;1.60;;
19339;SDS011;9804;52.350;6.684;2022-12-07T04:12:13;7.27;;;0.87;;
19339;SDS011;9804;52.350;6.684;2022-12-07T04:14:38;6.73;;;0.90;;
19339;SDS011;9804;52.350;6.684;2022-12-07T04:17:03;10.17;;;1.20;;
19339;SDS011;9804;52.350;6.684;2022-12-07T04:19:30;9.97;;;1.57;;
19339;SDS011;9804;52.350;6.684;2022-12-07T04:21:57;5.63;;;1.10;;
19339;SDS011;9804;52.350;6.684;2022-12-07T04:24:23;9.00;;;1.10;;
19339;SDS011;9804;52.350;6.684;2022-12-07T04:26:49;7.33;;;1.10;;
19339;SDS011;9804;52.350;6.684;2022-12-07T04:29:15;8.87;;;1.20;;
19339;SDS011;9804;52.350;6.684;2022-12-07T04:31:41;7.70;;;1.10;;
19339;SDS011;9804;52.350;6.684;2022-12-07T04:34:07;11.80;;;1.57;;
19339;SDS011;9804;52.350;6.684;2022-12-07T04:36:32;8.20;;;1.17;;
19339;SDS011;9804;52.350;6.684;2022-12-07T04:38:58;7.33;;;1.10;;
19339;SDS011;9804;52.350;6.684;2022-12-07T04:41:24;7.47;;;1.00;;
19339;SDS011;9804;52.350;6.684;2022-12-07T04:43:56;6.70;;;1.40;;
19339;SDS011;9804;52.350;6.684;2022-12-07T04:46:23;7.87;;;1.07;;
19339;SDS011;9804;52.350;6.684;2022-12-07T04:48:50;7.50;;;1.17;;
19339;SDS011;9804;52.350;6.684;2022-12-07T04:51:18;5.63;;;1.17;;
19339;SDS011;9804;52.350;6.684;2022-12-07T04:53:45;7.53;;;0.97;;
19339;SDS011;9804;52.350;6.684;2022-12-07T04:56:10;7.43;;;1.00;;
19339;SDS011;9804;52.350;6.684;2022-12-07T04:58:36;6.40;;;1.20;;
19339;SDS011;9804;52.350;6.684;2022-12-07T05:01:01;7.50;;;1.13;;
19339;SDS011;9804;52.350;6.684;2022-12-07T05:03:26;9.97;;;1.10;;
19339;SDS011;9804;52.350;6.684;2022-12-07T05:05:52;10.87;;;1.20;;
19339;SDS011;9804;52.350;6.684;2022-12-07T05:08:17;6.30;;;0.93;;
19339;SDS011;9804;52.350;6.684;2022-12-07T05:10:42;8.03;;;0.90;;
19339;SDS011;9804;52.350;6.684;2022-12-07T05:13:08;9.00;;;1.10;;
19339;SDS011;9804;52.350;6.684;2022-12-07T05:15:33;11.70;;;1.20;;
19339;SDS011;9804;52.350;6.684;2022-12-07T05:17:58;7.97;;;1.10;;
19339;SDS011;9804;52.350;6.684;2022-12-07T05:20:24;6.43;;;1.10;;
19339;SDS011;9804;52.350;6.684;2022-12-07T05:22:49;10.77;;;1.20;;
19339;SDS011;9804;52.350;6.684;2022-12-07T05:25:14;9.00;;;1.23;;
19339;SDS011;9804;52.350;6.684;2022-12-07T05:27:40;8.40;;;1.20;;
19339;SDS011;9804;52.350;6.684;2022-12-07T05:30:05;7.17;;;1.10;;
19339;SDS011;9804;52.350;6.684;2022-12-07T05:32:31;8.80;;;1.47;;
19339;SDS011;9804;52.350;6.684;2022-12-07T05:34:56;5.93;;;1.00;;
19339;SDS011;9804;52.350;6.684;2022-12-07T05:37:22;7.23;;;1.60;;
19339;SDS011;9804;52.350;6.684;2022-12-07T05:39:47;7.87;;;1.30;;
19339;SDS011;9804;52.350;6.684;2022-12-07T05:42:12;9.17;;;1.37;;
19339;SDS011;9804;52.350;6.684;2022-12-07T05:44:41;8.70;;;1.17;;
19339;SDS011;9804;52.350;6.684;2022-12-07T05:47:08;7.80;;;1.90;;
19339;SDS011;9804;52.350;6.684;2022-12-07T05:49:34;6.53;;;1.37;;
19339;SDS011;9804;52.350;6.684;2022-12-07T05:51:59;10.33;;;1.10;;
19339;SDS011;9804;52.350;6.684;2022-12-07T05:54:25;12.30;;;1.40;;
19339;SDS011;9804;52.350;6.684;2022-12-07T05:56:50;7.53;;;1.00;;
19339;SDS011;9804;52.350;6.684;2022-12-07T05:59:16;12.10;;;1.50;;
19339;SDS011;9804;52.350;6.684;2022-12-07T06:01:51;18.97;;;1.90;;
19339;SDS011;9804;52.350;6.684;2022-12-07T06:04:17;12.17;;;1.93;;
19339;SDS011;9804;52.350;6.684;2022-12-07T06:06:43;11.70;;;1.40;;
19339;SDS011;9804;52.350;6.684;2022-12-07T06:09:08;6.90;;;1.50;;
19339;SDS011;9804;52.350;6.684;2022-12-07T06:11:34;6.97;;;1.30;;
19339;SDS011;9804;52.350;6.684;2022-12-07T06:14:18;10.57;;;1.37;;
19339;SDS011;9804;52.350;6.684;2022-12-07T06:16:43;8.37;;;1.07;;
19339;SDS011;9804;52.350;6.684;2022-12-07T06:19:08;7.30;;;1.57;;
19339;SDS011;9804;52.350;6.684;2022-12-07T06:21:34;9.17;;;1.57;;
19339;SDS011;9804;52.350;6.684;2022-12-07T06:23:59;7.30;;;1.23;;
19339;SDS011;9804;52.350;6.684;2022-12-07T06:26:25;11.80;;;1.30;;
19339;SDS011;9804;52.350;6.684;2022-12-07T06:28:50;9.30;;;1.30;;
19339;SDS011;9804;52.350;6.684;2022-12-07T06:31:15;13.30;;;1.43;;
19339;SDS011;9804;52.350;6.684;2022-12-07T06:33:41;8.40;;;1.30;;
19339;SDS011;9804;52.350;6.684;2022-12-07T06:36:07;7.47;;;1.73;;
19339;SDS011;9804;52.350;6.684;2022-12-07T06:38:32;11.77;;;1.97;;
19339;SDS011;9804;52.350;6.684;2022-12-07T06:40:58;10.70;;;2.10;;
19339;SDS011;9804;52.350;6.684;2022-12-07T06:43:23;10.30;;;1.67;;
19339;SDS011;9804;52.350;6.684;2022-12-07T06:45:48;10.63;;;2.10;;
19339;SDS011;9804;52.350;6.684;2022-12-07T06:48:14;15.13;;;1.80;;
19339;SDS011;9804;52.350;6.684;2022-12-07T06:50:39;8.93;;;1.50;;
19339;SDS011;9804;52.350;6.684;2022-12-07T06:53:05;12.00;;;2.40;;
19339;SDS011;9804;52.350;6.684;2022-12-07T06:55:30;9.97;;;1.63;;
19339;SDS011;9804;52.350;6.684;2022-12-07T06:57:56;9.60;;;1.53;;
19339;SDS011;9804;52.350;6.684;2022-12-07T07:00:21;8.03;;;1.60;;
19339;SDS011;9804;52.350;6.684;2022-12-07T07:02:47;15.63;;;1.80;;
19339;SDS011;9804;52.350;6.684;2022-12-07T07:05:12;9.70;;;2.10;;
19339;SDS011;9804;52.350;6.684;2022-12-07T07:07:37;9.13;;;1.73;;
19339;SDS011;9804;52.350;6.684;2022-12-07T07:10:03;16.53;;;3.53;;
19339;SDS011;9804;52.350;6.684;2022-12-07T07:12:29;9.37;;;2.77;;
19339;SDS011;9804;52.350;6.684;2022-12-07T07:14:54;11.73;;;1.40;;
19339;SDS011;9804;52.350;6.684;2022-12-07T07:17:19;9.70;;;1.80;;
19339;SDS011;9804;52.350;6.684;2022-12-07T07:19:45;8.77;;;1.80;;
19339;SDS011;9804;52.350;6.684;2022-12-07T07:22:10;7.63;;;1.43;;
19339;SDS011;9804;52.350;6.684;2022-12-07T07:24:35;9.57;;;1.27;;
19339;SDS011;9804;52.350;6.684;2022-12-07T07:27:01;15.23;;;1.70;;
19339;SDS011;9804;52.350;6.684;2022-12-07T07:29:26;11.63;;;1.33;;
19339;SDS011;9804;52.350;6.684;2022-12-07T07:31:51;10.90;;;1.63;;
19339;SDS011;9804;52.350;6.684;2022-12-07T07:34:17;8.20;;;1.43;;
19339;SDS011;9804;52.350;6.684;2022-12-07T07:36:42;9.20;;;1.33;;
19339;SDS011;9804;52.350;6.684;2022-12-07T07:39:07;10.27;;;2.17;;
19339;SDS011;9804;52.350;6.684;2022-12-07T07:41:35;9.67;;;2.80;;
19339;SDS011;9804;52.350;6.684;2022-12-07T07:44:00;10.17;;;1.57;;
19339;SDS011;9804;52.350;6.684;2022-12-07T07:46:26;12.13;;;1.47;;
19339;SDS011;9804;52.350;6.684;2022-12-07T07:48:51;8.10;;;1.43;;
19339;SDS011;9804;52.350;6.684;2022-12-07T07:51:16;6.53;;;1.47;;
19339;SDS011;9804;52.350;6.684;2022-12-07T07:53:42;16.90;;;1.67;;
19339;SDS011;9804;52.350;6.684;2022-12-07T07:56:07;8.90;;;1.63;;
19339;SDS011;9804;52.350;6.684;2022-12-07T07:58:32;13.97;;;1.70;;
19339;SDS011;9804;52.350;6.684;2022-12-07T08:01:03;7.27;;;1.57;;
19339;SDS011;9804;52.350;6.684;2022-12-07T08:03:29;10.00;;;2.27;;
19339;SDS011;9804;52.350;6.684;2022-12-07T08:05:55;10.67;;;1.83;;
19339;SDS011;9804;52.350;6.684;2022-12-07T08:08:20;11.37;;;2.27;;
19339;SDS011;9804;52.350;6.684;2022-12-07T08:10:45;9.83;;;1.80;;
19339;SDS011;9804;52.350;6.684;2022-12-07T08:13:11;7.83;;;1.63;;
19339;SDS011;9804;52.350;6.684;2022-12-07T08:15:37;13.23;;;2.17;;
19339;SDS011;9804;52.350;6.684;2022-12-07T08:18:03;11.13;;;2.13;;
19339;SDS011;9804;52.350;6.684;2022-12-07T08:20:29;13.30;;;2.30;;
19339;SDS011;9804;52.350;6.684;2022-12-07T08:22:55;9.53;;;2.20;;
19339;SDS011;9804;52.350;6.684;2022-12-07T08:25:21;13.77;;;2.83;;
19339;SDS011;9804;52.350;6.684;2022-12-07T08:27:49;12.57;;;2.37;;
19339;SDS011;9804;52.350;6.684;2022-12-07T08:30:15;13.77;;;2.57;;
19339;SDS011;9804;52.350;6.684;2022-12-07T08:32:41;11.77;;;3.43;;
19339;SDS011;9804;52.350;6.684;2022-12-07T08:35:08;12.43;;;2.50;;
19339;SDS011;9804;52.350;6.684;2022-12-07T08:37:34;12.07;;;2.23;;
19339;SDS011;9804;52.350;6.684;2022-12-07T08:39:59;8.93;;;2.53;;
19339;SDS011;9804;52.350;6.684;2022-12-07T08:42:24;11.53;;;1.60;;
19339;SDS011;9804;52.350;6.684;2022-12-07T08:44:54;11.43;;;2.17;;
19339;SDS011;9804;52.350;6.684;2022-12-07T08:47:20;8.40;;;2.13;;
19339;SDS011;9804;52.350;6.684;2022-12-07T08:49:46;11.17;;;2.20;;
19339;SDS011;9804;52.350;6.684;2022-12-07T08:52:13;10.63;;;1.70;;
19339;SDS011;9804;52.350;6.684;2022-12-07T08:54:38;10.90;;;2.40;;
19339;SDS011;9804;52.350;6.684;2022-12-07T08:57:05;9.57;;;2.60;;
19339;SDS011;9804;52.350;6.684;2022-12-07T08:59:32;11.00;;;2.43;;
19339;SDS011;9804;52.350;6.684;2022-12-07T09:01:58;12.13;;;2.43;;
19339;SDS011;9804;52.350;6.684;2022-12-07T09:04:24;10.17;;;1.80;;
19339;SDS011;9804;52.350;6.684;2022-12-07T09:06:49;7.43;;;1.73;;
19339;SDS011;9804;52.350;6.684;2022-12-07T09:09:15;16.93;;;1.60;;
19339;SDS011;9804;52.350;6.684;2022-12-07T09:11:40;7.93;;;1.43;;
19339;SDS011;9804;52.350;6.684;2022-12-07T09:14:06;7.07;;;1.50;;
19339;SDS011;9804;52.350;6.684;2022-12-07T09:16:31;9.90;;;2.07;;
19339;SDS011;9804;52.350;6.684;2022-12-07T09:18:56;9.63;;;2.27;;
19339;SDS011;9804;52.350;6.684;2022-12-07T09:21:22;6.17;;;2.33;;
19339;SDS011;9804;52.350;6.684;2022-12-07T09:23:47;6.87;;;2.67;;
19339;SDS011;9804;52.350;6.684;2022-12-07T09:26:12;7.83;;;1.90;;
19339;SDS011;9804;52.350;6.684;2022-12-07T09:28:38;8.17;;;1.83;;
19339;SDS011;9804;52.350;6.684;2022-12-07T09:31:04;12.53;;;1.90;;
19339;SDS011;9804;52.350;6.684;2022-12-07T09:33:29;12.90;;;2.20;;
19339;SDS011;9804;52.350;6.684;2022-12-07T09:35:55;11.77;;;1.43;;
19339;SDS011;9804;52.350;6.684;2022-12-07T09:38:20;8.03;;;1.50;;
19339;SDS011;9804;52.350;6.684;2022-12-07T09:40:45;4.03;;;1.07;;
19339;SDS011;9804;52.350;6.684;2022-12-07T09:43:13;8.27;;;1.57;;
19339;SDS011;9804;52.350;6.684;2022-12-07T09:45:41;8.77;;;1.50;;
19339;SDS011;9804;52.350;6.684;2022-12-07T09:48:13;4.90;;;1.20;;
19339;SDS011;9804;52.350;6.684;2022-12-07T09:50:42;9.40;;;2.20;;
19339;SDS011;9804;52.350;6.684;2022-12-07T09:53:09;12.23;;;1.37;;
19339;SDS011;9804;52.350;6.684;2022-12-07T09:55:40;8.73;;;1.63;;
19339;SDS011;9804;52.350;6.684;2022-12-07T09:58:10;5.90;;;1.53;;
19339;SDS011;9804;52.350;6.684;2022-12-07T10:00:53;8.07;;;1.13;;
19339;SDS011;9804;52.350;6.684;2022-12-07T10:03:23;5.50;;;1.30;;
19339;SDS011;9804;52.350;6.684;2022-12-07T10:05:53;11.33;;;1.63;;
19339;SDS011;9804;52.350;6.684;2022-12-07T10:08:19;6.70;;;0.97;;
19339;SDS011;9804;52.350;6.684;2022-12-07T10:10:50;8.20;;;1.20;;
19339;SDS011;9804;52.350;6.684;2022-12-07T10:13:39;6.97;;;1.30;;
19339;SDS011;9804;52.350;6.684;2022-12-07T10:24:25;6.20;;;1.80;;
19339;SDS011;9804;52.350;6.684;2022-12-07T10:26:51;8.20;;;0.97;;
19339;SDS011;9804;52.350;6.684;2022-12-07T10:29:31;5.03;;;1.10;;
19339;SDS011;9804;52.350;6.684;2022-12-07T10:32:26;6.27;;;1.00;;
19339;SDS011;9804;52.350;6.684;2022-12-07T10:37:46;4.20;;;1.10;;
19339;SDS011;9804;52.350;6.684;2022-12-07T10:40:23;8.27;;;1.70;;
19339;SDS011;9804;52.350;6.684;2022-12-07T10:45:44;4.07;;;1.30;;
19339;SDS011;9804;52.350;6.684;2022-12-07T10:51:44;7.73;;;1.67;;
19339;SDS011;9804;52.350;6.684;2022-12-07T10:54:22;7.10;;;1.60;;
19339;SDS011;9804;52.350;6.684;2022-12-07T11:00:01;6.80;;;0.90;;
19339;SDS011;9804;52.350;6.684;2022-12-07T11:05:28;6.43;;;2.07;;
19339;SDS011;9804;52.350;6.684;2022-12-07T11:08:27;7.33;;;1.40;;
19339;SDS011;9804;52.350;6.684;2022-12-07T11:11:05;4.17;;;0.67;;
19339;SDS011;9804;52.350;6.684;2022-12-07T11:13:48;7.57;;;1.20;;
19339;SDS011;9804;52.350;6.684;2022-12-07T11:16:31;8.23;;;1.07;;
19339;SDS011;9804;52.350;6.684;2022-12-07T11:21:45;7.37;;;1.03;;
19339;SDS011;9804;52.350;6.684;2022-12-07T11:24:45;10.10;;;0.93;;
19339;SDS011;9804;52.350;6.684;2022-12-07T11:35:20;7.60;;;1.10;;
19339;SDS011;9804;52.350;6.684;2022-12-07T11:37:57;8.90;;;0.77;;
19339;SDS011;9804;52.350;6.684;2022-12-07T11:40:34;8.27;;;0.70;;
19339;SDS011;9804;52.350;6.684;2022-12-07T11:43:05;7.87;;;1.93;;
19339;SDS011;9804;52.350;6.684;2022-12-07T11:45:43;6.47;;;1.07;;
19339;SDS011;9804;52.350;6.684;2022-12-07T11:48:14;7.93;;;1.20;;
19339;SDS011;9804;52.350;6.684;2022-12-07T11:50:46;12.83;;;1.27;;
19339;SDS011;9804;52.350;6.684;2022-12-07T11:53:19;6.03;;;0.97;;
19339;SDS011;9804;52.350;6.684;2022-12-07T11:55:56;9.20;;;1.10;;
19339;SDS011;9804;52.350;6.684;2022-12-07T12:06:37;8.93;;;1.37;;
19339;SDS011;9804;52.350;6.684;2022-12-07T12:09:06;7.87;;;1.37;;
19339;SDS011;9804;52.350;6.684;2022-12-07T12:19:45;6.73;;;1.00;;
19339;SDS011;9804;52.350;6.684;2022-12-07T12:22:26;7.30;;;1.13;;
19339;SDS011;9804;52.350;6.684;2022-12-07T12:24:58;7.67;;;0.83;;
19339;SDS011;9804;52.350;6.684;2022-12-07T12:27:25;4.17;;;0.80;;
19339;SDS011;9804;52.350;6.684;2022-12-07T12:29:55;4.47;;;0.80;;
19339;SDS011;9804;52.350;6.684;2022-12-07T12:32:28;5.70;;;1.00;;
19339;SDS011;9804;52.350;6.684;2022-12-07T12:34:58;7.87;;;1.03;;
19339;SDS011;9804;52.350;6.684;2022-12-07T12:45:31;5.90;;;1.50;;
19339;SDS011;9804;52.350;6.684;2022-12-07T12:50:31;7.47;;;1.60;;
19339;SDS011;9804;52.350;6.684;2022-12-07T13:00:44;6.40;;;1.87;;
19339;SDS011;9804;52.350;6.684;2022-12-07T13:03:21;7.83;;;1.67;;
19339;SDS011;9804;52.350;6.684;2022-12-07T13:06:16;5.50;;;1.30;;
19339;SDS011;9804;52.350;6.684;2022-12-07T13:08:42;5.87;;;1.20;;
19339;SDS011;9804;52.350;6.684;2022-12-07T13:17:07;6.03;;;1.10;;
19339;SDS011;9804;52.350;6.684;2022-12-07T13:24:56;6.93;;;1.50;;
19339;SDS011;9804;52.350;6.684;2022-12-07T13:27:25;7.30;;;1.33;;
19339;SDS011;9804;52.350;6.684;2022-12-07T13:29:51;6.53;;;1.37;;
19339;SDS011;9804;52.350;6.684;2022-12-07T13:32:24;4.93;;;1.30;;
19339;SDS011;9804;52.350;6.684;2022-12-07T13:34:51;4.37;;;0.93;;
19339;SDS011;9804;52.350;6.684;2022-12-07T13:39:50;6.37;;;1.10;;
19339;SDS011;9804;52.350;6.684;2022-12-07T13:42:26;7.00;;;1.10;;
19339;SDS011;9804;52.350;6.684;2022-12-07T13:44:53;6.87;;;1.80;;
19339;SDS011;9804;52.350;6.684;2022-12-07T13:49:52;9.63;;;1.83;;
19339;SDS011;9804;52.350;6.684;2022-12-07T13:52:23;9.57;;;1.70;;
19339;SDS011;9804;52.350;6.684;2022-12-07T13:55:00;10.67;;;2.17;;
19339;SDS011;9804;52.350;6.684;2022-12-07T13:57:38;10.73;;;2.10;;
19339;SDS011;9804;52.350;6.684;2022-12-07T14:00:05;13.10;;;2.07;;
19339;SDS011;9804;52.350;6.684;2022-12-07T14:02:53;8.27;;;1.57;;
19339;SDS011;9804;52.350;6.684;2022-12-07T14:05:27;5.27;;;1.20;;
19339;SDS011;9804;52.350;6.684;2022-12-07T14:07:54;4.67;;;1.03;;
19339;SDS011;9804;52.350;6.684;2022-12-07T14:10:29;10.77;;;1.50;;
19339;SDS011;9804;52.350;6.684;2022-12-07T14:13:00;11.60;;;1.53;;
19339;SDS011;9804;52.350;6.684;2022-12-07T14:15:28;8.77;;;1.50;;
19339;SDS011;9804;52.350;6.684;2022-12-07T14:17:55;9.90;;;1.30;;
19339;SDS011;9804;52.350;6.684;2022-12-07T14:20:38;7.20;;;1.37;;
19339;SDS011;9804;52.350;6.684;2022-12-07T14:23:06;8.03;;;1.53;;
19339;SDS011;9804;52.350;6.684;2022-12-07T14:25:52;7.73;;;1.50;;
19339;SDS011;9804;52.350;6.684;2022-12-07T14:28:25;8.17;;;1.60;;
19339;SDS011;9804;52.350;6.684;2022-12-07T14:30:53;11.80;;;1.60;;
19339;SDS011;9804;52.350;6.684;2022-12-07T14:33:18;11.87;;;2.13;;
19339;SDS011;9804;52.350;6.684;2022-12-07T14:35:44;6.10;;;1.37;;
19339;SDS011;9804;52.350;6.684;2022-12-07T14:38:09;9.23;;;1.73;;
19339;SDS011;9804;52.350;6.684;2022-12-07T14:40:34;10.27;;;1.53;;
19339;SDS011;9804;52.350;6.684;2022-12-07T14:43:01;10.07;;;2.13;;
19339;SDS011;9804;52.350;6.684;2022-12-07T14:45:31;6.43;;;1.63;;
19339;SDS011;9804;52.350;6.684;2022-12-07T14:47:57;11.73;;;1.60;;
19339;SDS011;9804;52.350;6.684;2022-12-07T14:50:22;12.90;;;1.40;;
19339;SDS011;9804;52.350;6.684;2022-12-07T14:53:33;7.87;;;1.10;;
19339;SDS011;9804;52.350;6.684;2022-12-07T14:55:43;4.83;;;1.40;;
19339;SDS011;9804;52.350;6.684;2022-12-07T14:58:12;8.17;;;1.03;;
19339;SDS011;9804;52.350;6.684;2022-12-07T15:00:42;13.07;;;2.00;;
19339;SDS011;9804;52.350;6.684;2022-12-07T15:03:08;7.20;;;1.10;;
19339;SDS011;9804;52.350;6.684;2022-12-07T15:05:33;7.27;;;1.00;;
19339;SDS011;9804;52.350;6.684;2022-12-07T15:07:59;7.40;;;1.77;;
19339;SDS011;9804;52.350;6.684;2022-12-07T15:10:29;9.27;;;1.77;;
19339;SDS011;9804;52.350;6.684;2022-12-07T15:13:00;8.17;;;1.67;;
19339;SDS011;9804;52.350;6.684;2022-12-07T15:15:46;2.57;;;1.00;;
19339;SDS011;9804;52.350;6.684;2022-12-07T15:18:12;8.07;;;1.73;;
19339;SDS011;9804;52.350;6.684;2022-12-07T15:20:38;11.77;;;1.40;;
19339;SDS011;9804;52.350;6.684;2022-12-07T15:23:04;11.23;;;1.73;;
19339;SDS011;9804;52.350;6.684;2022-12-07T15:25:29;9.93;;;1.80;;
19339;SDS011;9804;52.350;6.684;2022-12-07T15:27:54;9.37;;;1.53;;
19339;SDS011;9804;52.350;6.684;2022-12-07T15:30:20;9.37;;;2.13;;
19339;SDS011;9804;52.350;6.684;2022-12-07T15:32:48;5.53;;;1.57;;
19339;SDS011;9804;52.350;6.684;2022-12-07T15:35:17;9.27;;;1.50;;
19339;SDS011;9804;52.350;6.684;2022-12-07T15:37:43;7.77;;;1.70;;
19339;SDS011;9804;52.350;6.684;2022-12-07T15:40:09;7.10;;;1.53;;
19339;SDS011;9804;52.350;6.684;2022-12-07T15:42:35;6.13;;;1.60;;
19339;SDS011;9804;52.350;6.684;2022-12-07T15:45:01;10.43;;;1.87;;
19339;SDS011;9804;52.350;6.684;2022-12-07T15:47:36;8.87;;;1.60;;
19339;SDS011;9804;52.350;6.684;2022-12-07T15:50:04;10.13;;;2.07;;
19339;SDS011;9804;52.350;6.684;2022-12-07T15:52:31;6.97;;;2.90;;
19339;SDS011;9804;52.350;6.684;2022-12-07T15:54:57;9.60;;;2.37;;
19339;SDS011;9804;52.350;6.684;2022-12-07T15:57:24;12.60;;;2.20;;
19339;SDS011;9804;52.350;6.684;2022-12-07T15:59:50;8.97;;;2.97;;
19339;SDS011;9804;52.350;6.684;2022-12-07T16:02:16;9.30;;;2.60;;
19339;SDS011;9804;52.350;6.684;2022-12-07T16:04:41;9.47;;;1.80;;
19339;SDS011;9804;52.350;6.684;2022-12-07T16:07:06;5.53;;;1.43;;
19339;SDS011;9804;52.350;6.684;2022-12-07T16:09:32;8.90;;;1.87;;
19339;SDS011;9804;52.350;6.684;2022-12-07T16:11:58;10.00;;;2.10;;
19339;SDS011;9804;52.350;6.684;2022-12-07T16:14:23;5.30;;;2.00;;
19339;SDS011;9804;52.350;6.684;2022-12-07T16:16:48;8.07;;;1.83;;
19339;SDS011;9804;52.350;6.684;2022-12-07T16:19:14;9.03;;;2.03;;
19339;SDS011;9804;52.350;6.684;2022-12-07T16:21:40;11.50;;;2.60;;
19339;SDS011;9804;52.350;6.684;2022-12-07T16:24:05;8.73;;;2.57;;
19339;SDS011;9804;52.350;6.684;2022-12-07T16:26:31;8.23;;;2.53;;
19339;SDS011;9804;52.350;6.684;2022-12-07T16:28:57;7.87;;;2.43;;
19339;SDS011;9804;52.350;6.684;2022-12-07T16:31:23;7.93;;;1.90;;
19339;SDS011;9804;52.350;6.684;2022-12-07T16:33:52;7.00;;;1.87;;
19339;SDS011;9804;52.350;6.684;2022-12-07T16:36:18;12.30;;;1.90;;
19339;SDS011;9804;52.350;6.684;2022-12-07T16:38:46;8.47;;;1.60;;
19339;SDS011;9804;52.350;6.684;2022-12-07T16:41:11;10.10;;;1.77;;
19339;SDS011;9804;52.350;6.684;2022-12-07T16:43:37;7.40;;;1.57;;
19339;SDS011;9804;52.350;6.684;2022-12-07T16:46:03;9.77;;;2.30;;
19339;SDS011;9804;52.350;6.684;2022-12-07T16:48:29;10.83;;;2.60;;
19339;SDS011;9804;52.350;6.684;2022-12-07T16:50:54;9.33;;;2.23;;
19339;SDS011;9804;52.350;6.684;2022-12-07T16:53:20;11.63;;;2.10;;
19339;SDS011;9804;52.350;6.684;2022-12-07T16:55:47;10.50;;;2.13;;
19339;SDS011;9804;52.350;6.684;2022-12-07T16:58:13;11.17;;;1.97;;
19339;SDS011;9804;52.350;6.684;2022-12-07T17:00:39;10.83;;;2.27;;
19339;SDS011;9804;52.350;6.684;2022-12-07T17:03:06;8.47;;;1.70;;